createdAt,value
2018-07-29T00:10:23.045Z,99.90
2018-07-29T00:12:53.514Z,99.90
2018-07-29T00:15:22.373Z,99.90
2018-07-29T00:21:08.637Z,99.60
2018-07-29T00:26:45.786Z,99.50
2018-07-29T00:44:18.933Z,99.40
2018-07-29T00:46:47.801Z,99.20
2018-07-29T00:52:31.557Z,99.90
2018-07-29T00:55:22.149Z,99.90
2018-07-29T00:57:51.536Z,99.90
2018-07-29T01:00:20.356Z,99.90
2018-07-29T01:05:48.945Z,99.90
2018-07-29T01:08:17.793Z,99.90
2018-07-29T01:10:51.857Z,99.90
2018-07-29T01:13:22.845Z,99.90
2018-07-29T01:15:51.686Z,99.90
2018-07-29T01:18:20.572Z,99.90
2018-07-29T01:31:54.578Z,99.90
2018-07-29T01:34:24.309Z,99.90
2018-07-29T01:36:54.079Z,99.90
2018-07-29T01:42:24.747Z,99.90
2018-07-29T01:44:53.832Z,99.90
2018-07-29T01:47:23.858Z,99.90
2018-07-29T01:49:53.556Z,99.90
2018-07-29T01:52:23.615Z,99.90
2018-07-29T01:54:54.337Z,99.90
2018-07-29T01:57:23.189Z,99.90
2018-07-29T02:05:58.991Z,99.90
2018-07-29T02:08:44.031Z,99.90
2018-07-29T02:11:12.869Z,99.90
2018-07-29T02:19:23.825Z,99.90
2018-07-29T02:25:10.876Z,99.90
2018-07-29T02:27:39.827Z,99.90
2018-07-29T02:33:21.861Z,99.90
2018-07-29T02:35:54.561Z,99.90
2018-07-29T02:38:23.679Z,99.90
2018-07-29T02:43:55.780Z,99.90
2018-07-29T02:46:24.605Z,99.90
2018-07-29T02:48:53.735Z,99.90
2018-07-29T02:51:24.323Z,99.90
2018-07-29T03:06:09.715Z,99.90
2018-07-29T03:08:52.079Z,99.90
2018-07-29T03:11:24.886Z,99.90
2018-07-29T03:13:53.630Z,99.90
2018-07-29T03:22:23.578Z,99.90
2018-07-29T03:24:52.422Z,99.90
2018-07-29T03:27:21.279Z,99.90
2018-07-29T03:32:53.587Z,99.90
2018-07-29T03:35:22.419Z,99.90
2018-07-29T03:40:54.094Z,99.90
2018-07-29T03:43:33.232Z,99.90
2018-07-29T03:46:01.930Z,99.90
2018-07-29T03:48:30.863Z,99.90
2018-07-29T03:51:11.609Z,99.90
2018-07-29T03:53:51.774Z,99.90
2018-07-29T03:59:23.665Z,99.90
2018-07-29T04:04:56.006Z,99.90
2018-07-29T04:07:24.754Z,99.90
2018-07-29T04:13:21.962Z,99.90
2018-07-29T04:16:09.135Z,99.90
2018-07-29T04:21:53.007Z,99.90
2018-07-29T04:33:56.003Z,99.90
2018-07-29T04:42:31.015Z,99.90
2018-07-29T04:47:54.451Z,99.90
2018-07-29T04:50:24.234Z,99.90
2018-07-29T04:52:53.870Z,99.90
2018-07-29T04:58:25.940Z,99.90
2018-07-29T05:04:08.553Z,99.90
2018-07-29T05:09:52.781Z,99.90
2018-07-29T05:15:22.899Z,99.90
2018-07-29T05:27:11.913Z,99.90
2018-07-29T05:38:57.034Z,99.90
2018-07-29T05:50:32.585Z,99.90
2018-07-29T05:53:21.906Z,99.90
2018-07-29T05:55:54.542Z,99.90
2018-07-29T05:58:23.792Z,99.90
2018-07-29T06:00:58.270Z,99.90
2018-07-29T06:03:26.971Z,99.90
2018-07-29T10:31:27.599Z,75.00
2018-07-29T10:33:56.656Z,78.40
2018-07-29T10:39:52.793Z,77.40
2018-07-29T10:42:25.473Z,77.30
2018-07-29T10:44:54.298Z,77.40
2018-07-29T10:47:23.768Z,77.50
2018-07-29T10:49:54.421Z,75.90
2018-07-29T10:52:52.667Z,77.00
2018-07-29T10:55:23.551Z,76.20
2018-07-29T11:00:45.693Z,77.30
2018-07-29T11:03:22.651Z,75.60
2018-07-29T11:05:53.730Z,74.30
2018-07-29T11:08:24.115Z,75.60
2018-07-29T11:10:52.968Z,74.70
2018-07-29T11:13:24.513Z,76.50
2018-07-29T11:15:53.418Z,76.00
2018-07-29T11:18:34.066Z,76.00
2018-07-29T11:21:18.130Z,76.10
2018-07-29T11:31:58.132Z,76.60
2018-07-29T11:34:26.873Z,76.00
2018-07-29T11:37:02.537Z,74.40
2018-07-29T11:39:50.439Z,73.10
2018-07-29T11:42:24.565Z,74.10
2018-07-29T11:44:53.944Z,73.50
2018-07-29T11:47:28.740Z,73.00
2018-07-29T11:50:25.672Z,73.50
2018-07-29T11:53:04.800Z,70.30
2018-07-29T11:55:34.909Z,70.30
2018-07-29T11:58:03.725Z,69.50
2018-07-29T12:03:35.584Z,70.80
2018-07-29T12:06:04.399Z,71.00
2018-07-29T12:08:36.198Z,69.60
2018-07-29T12:11:05.397Z,68.70
2018-07-29T12:13:35.531Z,68.20
2018-07-29T12:16:06.177Z,66.90
2018-07-29T12:18:36.079Z,66.50
2018-07-29T12:21:08.279Z,67.00
2018-07-29T12:23:36.968Z,66.70
2018-07-29T12:26:12.416Z,67.40
2018-07-29T12:28:43.769Z,68.20
2018-07-29T12:31:13.619Z,67.60
2018-07-29T12:33:44.161Z,69.50
2018-07-29T12:36:13.555Z,68.60
2018-07-29T12:38:44.633Z,67.70
2018-07-29T12:41:15.619Z,69.00
2018-07-29T12:43:44.428Z,69.50
2018-07-29T12:46:13.253Z,69.20
2018-07-29T12:48:42.469Z,68.40
2018-07-29T12:51:13.215Z,68.80
2018-07-29T12:53:42.899Z,69.10
2018-07-29T12:56:11.515Z,70.20
2018-07-29T12:58:44.669Z,71.10
2018-07-29T13:01:13.420Z,69.80
2018-07-29T13:03:43.502Z,71.90
2018-07-29T13:06:13.505Z,70.20
2018-07-29T13:08:42.810Z,70.40
2018-07-29T13:11:13.927Z,70.00
2018-07-29T13:13:43.360Z,71.70
2018-07-29T13:16:12.065Z,70.90
2018-07-29T13:18:41.367Z,68.90
2018-07-29T13:21:12.893Z,68.00
2018-07-29T13:23:42.951Z,69.80
2018-07-29T13:26:11.615Z,69.80
2018-07-29T13:28:40.111Z,69.40
2018-07-29T13:31:14.221Z,70.30
2018-07-29T13:33:43.129Z,71.30
2018-07-29T13:36:12.323Z,71.90
2018-07-29T13:38:43.250Z,72.50
2018-07-29T13:41:13.752Z,72.30
2018-07-29T13:43:42.922Z,72.30
2018-07-29T13:46:14.523Z,73.70
2018-07-29T13:48:43.363Z,73.20
2018-07-29T13:51:11.868Z,72.80
2018-07-29T13:53:40.692Z,72.60
2018-07-29T13:56:09.831Z,69.90
2018-07-29T13:58:39.596Z,70.30
2018-07-29T14:01:08.319Z,68.40
2018-07-29T14:03:39.469Z,68.90
2018-07-29T14:06:13.566Z,69.80
2018-07-29T14:08:42.370Z,68.90
2018-07-29T14:11:11.321Z,69.90
2018-07-29T14:13:40.790Z,67.90
2018-07-29T14:16:10.718Z,67.30
2018-07-29T14:18:41.552Z,68.30
2018-07-29T14:21:10.188Z,69.90
2018-07-29T14:23:40.073Z,70.30
2018-07-29T14:26:10.721Z,69.30
2018-07-29T14:28:40.978Z,70.40
2018-07-29T14:31:11.291Z,70.50
2018-07-29T14:33:40.149Z,66.90
2018-07-29T14:36:09.451Z,66.80
2018-07-29T14:38:38.853Z,65.90
2018-07-29T14:41:08.311Z,66.40
2018-07-29T14:43:42.225Z,65.20
2018-07-29T14:46:12.198Z,64.50
2018-07-29T14:48:41.490Z,65.30
2018-07-29T14:51:11.283Z,67.30
2018-07-29T14:53:40.643Z,67.40
2018-07-29T14:56:10.525Z,67.60
2018-07-29T14:58:39.998Z,65.80
2018-07-29T15:01:10.793Z,63.70
2018-07-29T15:03:41.168Z,65.50
2018-07-29T15:06:10.970Z,66.20
2018-07-29T15:08:40.433Z,65.00
2018-07-29T15:11:09.870Z,64.90
2018-07-29T15:13:39.278Z,65.80
2018-07-29T15:16:10.791Z,66.50
2018-07-29T15:18:41.118Z,67.10
2018-07-29T15:21:09.947Z,66.70
2018-07-29T15:23:40.403Z,66.20
2018-07-29T15:26:09.361Z,66.80
2018-07-29T15:28:38.050Z,66.90
2018-07-29T15:31:12.169Z,65.80
2018-07-29T15:33:40.942Z,63.90
2018-07-29T15:36:09.777Z,64.20
2018-07-29T15:38:40.045Z,64.70
2018-07-29T15:41:09.907Z,64.20
2018-07-29T15:43:40.615Z,64.40
2018-07-29T15:46:11.415Z,64.90
2018-07-29T15:48:41.156Z,64.70
2018-07-29T15:51:11.801Z,64.50
2018-07-29T15:53:42.630Z,65.40
2018-07-29T15:56:11.413Z,65.60
2018-07-29T15:58:40.965Z,65.00
2018-07-29T16:01:10.061Z,63.50
2018-07-29T16:03:40.033Z,63.40
2018-07-29T16:06:15.382Z,64.00
2018-07-29T16:08:47.855Z,64.10
2018-07-29T16:11:24.958Z,63.80
2018-07-29T16:13:54.747Z,64.10
2018-07-29T16:16:23.838Z,64.90
2018-07-29T16:18:54.563Z,65.50
2018-07-29T16:21:25.538Z,65.00
2018-07-29T16:23:54.855Z,64.60
2018-07-29T16:26:23.558Z,64.50
2018-07-29T16:28:53.438Z,65.40
2018-07-29T16:31:23.127Z,64.90
2018-07-29T16:33:52.546Z,65.40
2018-07-29T16:36:21.983Z,65.70
2018-07-29T16:38:56.359Z,65.30
2018-07-29T16:41:42.605Z,65.90
2018-07-29T16:44:12.876Z,66.50
2018-07-29T16:46:42.832Z,67.30
2018-07-29T16:49:11.750Z,66.30
2018-07-29T16:51:40.961Z,66.50
2018-07-29T16:54:10.409Z,67.10
2018-07-29T16:56:39.177Z,67.50
2018-07-29T16:59:09.451Z,67.30
2018-07-29T17:01:39.105Z,66.90
2018-07-29T17:04:08.792Z,67.30
2018-07-29T17:06:37.792Z,68.20
2018-07-29T17:09:08.486Z,68.90
2018-07-29T17:11:37.510Z,70.10
2018-07-29T17:14:06.990Z,70.10
2018-07-29T17:16:35.613Z,69.90
2018-07-29T17:19:15.401Z,69.60
2018-07-29T17:21:44.034Z,69.70
2018-07-29T17:24:12.881Z,69.10
2018-07-29T17:26:46.228Z,69.50
2018-07-29T17:29:14.949Z,70.10
2018-07-29T17:40:20.830Z,71.80
2018-07-29T17:42:50.364Z,71.40
2018-07-29T17:45:22.161Z,71.40
2018-07-29T17:47:52.533Z,71.80
2018-07-29T17:50:22.312Z,72.00
2018-07-29T17:52:51.827Z,72.60
2018-07-29T17:55:21.683Z,73.70
2018-07-29T17:57:50.492Z,73.50
2018-07-29T18:00:19.945Z,74.00
2018-07-29T18:08:55.638Z,75.50
2018-07-29T18:11:24.528Z,75.40
2018-07-29T18:13:57.101Z,75.80
2018-07-29T18:16:29.371Z,75.80
2018-07-29T18:19:03.576Z,75.90
2018-07-29T18:21:34.390Z,76.70
2018-07-29T18:24:04.201Z,77.30
2018-07-29T18:26:35.781Z,77.00
2018-07-29T18:29:05.161Z,76.60
2018-07-29T18:31:47.091Z,77.70
2018-07-29T18:34:33.774Z,78.90
2018-07-29T18:37:04.474Z,78.80
2018-07-29T18:42:34.309Z,78.50
2018-07-29T18:45:05.006Z,78.70
2018-07-29T18:47:34.299Z,77.90
2018-07-29T18:50:04.607Z,78.10
2018-07-29T18:52:34.025Z,78.90
2018-07-29T18:58:03.513Z,78.70
2018-07-29T19:00:35.161Z,79.20
2018-07-29T19:03:12.913Z,79.50
2018-07-29T19:06:01.853Z,79.30
2018-07-29T19:08:31.138Z,79.50
2018-07-29T19:14:03.853Z,80.30
2018-07-29T19:22:56.671Z,80.40
2018-07-29T19:25:25.431Z,80.80
2018-07-29T19:27:55.871Z,81.70
2018-07-29T19:30:25.642Z,82.20
2018-07-29T19:32:56.030Z,82.20
2018-07-29T19:35:39.588Z,82.40
2018-07-29T19:38:21.352Z,82.50
2018-07-29T19:40:52.557Z,82.90
2018-07-29T19:48:26.443Z,83.00
2018-07-29T19:50:56.675Z,83.30
2018-07-29T19:53:27.294Z,83.10
2018-07-29T19:55:55.990Z,83.20
2018-07-29T19:58:26.018Z,83.90
2018-07-29T20:00:54.711Z,83.20
2018-07-29T20:03:28.956Z,83.30
2018-07-29T20:06:03.800Z,83.90
2018-07-29T20:15:49.399Z,86.00
2018-07-29T20:18:18.881Z,85.90
2018-07-29T20:23:57.951Z,89.30
2018-07-29T20:39:50.903Z,87.80
2018-07-29T20:42:33.973Z,88.30
2018-07-29T20:50:55.131Z,89.10
2018-07-29T20:53:26.668Z,89.60
2018-07-29T20:58:53.563Z,91.80
2018-07-29T21:01:26.163Z,91.00
2018-07-29T21:06:56.844Z,92.20
2018-07-29T21:09:25.677Z,92.40
2018-07-29T21:30:53.908Z,92.30
2018-07-29T21:33:40.639Z,92.90
2018-07-29T21:36:23.987Z,92.70
2018-07-29T21:41:55.159Z,92.40
2018-07-29T22:18:12.571Z,92.10
2018-07-29T22:29:54.587Z,93.00
2018-07-29T22:32:27.027Z,93.10
2018-07-29T22:34:58.277Z,93.40
2018-07-29T22:37:27.285Z,93.50
2018-07-29T22:58:19.013Z,96.50
2018-07-29T23:12:57.719Z,97.30
2018-07-29T23:21:25.342Z,98.10
2018-07-29T23:30:25.102Z,96.50
2018-07-29T23:32:57.230Z,97.10
2018-07-29T23:45:23.812Z,97.30
2018-07-29T23:53:23.981Z,97.90
2018-07-29T23:55:57.094Z,98.00
2018-07-29T23:58:26.977Z,98.30
